sensor_id;sensor_type;location;lat;lon;timestamp;temperature;humidity
6480;DHT22;71753;48.772;9.148;2023-08-01T00:00:05;17.96;76.90
6480;DHT22;71753;48.772;9.148;2023-08-01T00:02:33;17.92;77.31
6480;DHT22;71753;48.772;9.148;2023-08-01T00:05:00;17.97;77.08
6480;DHT22;71753;48.772;9.148;2023-08-01T00:07:27;17.88;79.71
6480;DHT22;71753;48.772;9.148;2023-08-01T00:09:55;17.92;79.74
6480;DHT22;71753;48.772;9.148;2023-08-01T00:12:21;17.85;80.18
6480;DHT22;71753;48.772;9.148;2023-08-01T00:14:48;17.73;80.27
6480;DHT22;71753;48.772;9.148;2023-08-01T00:17:14;17.87;77.49
6480;DHT22;71753;48.772;9.148;2023-08-01T00:19:41;17.79;80.60
6480;DHT22;71753;48.772;9.148;2023-08-01T00:22:08;17.74;79.78
6480;DHT22;71753;48.772;9.148;2023-08-01T00:24:35;17.56;81.51
6480;DHT22;71753;48.772;9.148;2023-08-01T00:27:04;17.53;81.20
6480;DHT22;71753;48.772;9.148;2023-08-01T00:29:31;17.63;80.62
6480;DHT22;71753;48.772;9.148;2023-08-01T00:31:57;17.69;78.46
6480;DHT22;71753;48.772;9.148;2023-08-01T00:34:24;17.70;80.63
6480;DHT22;71753;48.772;9.148;2023-08-01T00:36:50;17.74;81.62
6480;DHT22;71753;48.772;9.148;2023-08-01T00:39:17;17.66;79.70
6480;DHT22;71753;48.772;9.148;2023-08-01T00:41:44;17.66;81.79
6480;DHT22;71753;48.772;9.148;2023-08-01T00:44:12;17.63;83.75
6480;DHT22;71753;48.772;9.148;2023-08-01T00:46:38;17.67;79.49
6480;DHT22;71753;48.772;9.148;2023-08-01T00:49:05;17.78;80.60
6480;DHT22;71753;48.772;9.148;2023-08-01T00:51:33;17.73;77.75
6480;DHT22;71753;48.772;9.148;2023-08-01T00:54:01;17.67;81.03
6480;DHT22;71753;48.772;9.148;2023-08-01T00:56:27;17.56;81.41
6480;DHT22;71753;48.772;9.148;2023-08-01T00:58:54;17.59;81.23
6480;DHT22;71753;48.772;9.148;2023-08-01T01:01:22;17.41;84.48
6480;DHT22;71753;48.772;9.148;2023-08-01T01:03:50;17.54;79.91
6480;DHT22;71753;48.772;9.148;2023-08-01T01:06:20;17.72;78.67
6480;DHT22;71753;48.772;9.148;2023-08-01T01:08:48;17.73;80.07
6480;DHT22;71753;48.772;9.148;2023-08-01T01:11:15;17.75;80.30
6480;DHT22;71753;48.772;9.148;2023-08-01T01:13:41;17.68;83.45
6480;DHT22;71753;48.772;9.148;2023-08-01T01:16:08;17.61;81.83
6480;DHT22;71753;48.772;9.148;2023-08-01T01:18:36;17.69;80.86
6480;DHT22;71753;48.772;9.148;2023-08-01T01:21:04;17.81;77.46
6480;DHT22;71753;48.772;9.148;2023-08-01T01:23:31;17.78;76.85
6480;DHT22;71753;48.772;9.148;2023-08-01T01:26:00;17.84;76.21
6480;DHT22;71753;48.772;9.148;2023-08-01T01:28:28;17.80;77.89
6480;DHT22;71753;48.772;9.148;2023-08-01T01:30:55;17.78;78.48
6480;DHT22;71753;48.772;9.148;2023-08-01T01:33:23;17.80;77.08
6480;DHT22;71753;48.772;9.148;2023-08-01T01:35:50;17.78;77.09
6480;DHT22;71753;48.772;9.148;2023-08-01T01:38:18;17.72;78.93
6480;DHT22;71753;48.772;9.148;2023-08-01T01:40:44;17.74;77.72
6480;DHT22;71753;48.772;9.148;2023-08-01T01:43:11;17.68;79.11
6480;DHT22;71753;48.772;9.148;2023-08-01T01:45:40;17.70;79.77
6480;DHT22;71753;48.772;9.148;2023-08-01T01:48:06;17.64;79.95
6480;DHT22;71753;48.772;9.148;2023-08-01T01:50:33;17.66;79.40
6480;DHT22;71753;48.772;9.148;2023-08-01T01:53:00;17.59;81.07
6480;DHT22;71753;48.772;9.148;2023-08-01T01:55:28;17.58;79.53
6480;DHT22;71753;48.772;9.148;2023-08-01T01:57:54;17.62;79.11
6480;DHT22;71753;48.772;9.148;2023-08-01T02:00:21;17.50;80.10
6480;DHT22;71753;48.772;9.148;2023-08-01T02:02:48;17.50;80.41
6480;DHT22;71753;48.772;9.148;2023-08-01T02:05:14;17.52;80.48
6480;DHT22;71753;48.772;9.148;2023-08-01T02:07:41;17.61;79.57
6480;DHT22;71753;48.772;9.148;2023-08-01T02:10:08;17.62;79.59
6480;DHT22;71753;48.772;9.148;2023-08-01T02:12:36;17.54;79.93
6480;DHT22;71753;48.772;9.148;2023-08-01T02:15:04;17.50;80.89
6480;DHT22;71753;48.772;9.148;2023-08-01T02:17:31;17.53;80.20
6480;DHT22;71753;48.772;9.148;2023-08-01T02:19:57;17.53;79.62
6480;DHT22;71753;48.772;9.148;2023-08-01T02:22:25;17.55;80.46
6480;DHT22;71753;48.772;9.148;2023-08-01T02:24:51;17.46;81.75
6480;DHT22;71753;48.772;9.148;2023-08-01T02:27:18;17.53;79.40
6480;DHT22;71753;48.772;9.148;2023-08-01T02:29:46;17.67;78.31
6480;DHT22;71753;48.772;9.148;2023-08-01T02:32:15;17.65;79.49
6480;DHT22;71753;48.772;9.148;2023-08-01T02:34:42;17.66;80.51
6480;DHT22;71753;48.772;9.148;2023-08-01T02:37:08;17.73;78.70
6480;DHT22;71753;48.772;9.148;2023-08-01T02:39:35;17.74;78.19
6480;DHT22;71753;48.772;9.148;2023-08-01T02:42:02;17.56;80.72
6480;DHT22;71753;48.772;9.148;2023-08-01T02:44:29;17.59;79.46
6480;DHT22;71753;48.772;9.148;2023-08-01T02:46:57;17.48;82.17
6480;DHT22;71753;48.772;9.148;2023-08-01T02:49:23;17.59;79.40
6480;DHT22;71753;48.772;9.148;2023-08-01T02:51:50;17.70;79.40
6480;DHT22;71753;48.772;9.148;2023-08-01T02:54:17;17.67;79.51
6480;DHT22;71753;48.772;9.148;2023-08-01T02:56:43;17.70;78.11
6480;DHT22;71753;48.772;9.148;2023-08-01T02:59:10;17.80;77.29
6480;DHT22;71753;48.772;9.148;2023-08-01T03:01:38;17.78;77.89
6480;DHT22;71753;48.772;9.148;2023-08-01T03:04:06;17.84;78.46
6480;DHT22;71753;48.772;9.148;2023-08-01T03:06:33;17.79;78.15
6480;DHT22;71753;48.772;9.148;2023-08-01T03:09:00;17.74;78.31
6480;DHT22;71753;48.772;9.148;2023-08-01T03:11:27;17.79;77.92
6480;DHT22;71753;48.772;9.148;2023-08-01T03:13:53;17.82;78.17
6480;DHT22;71753;48.772;9.148;2023-08-01T03:16:20;17.93;77.89
6480;DHT22;71753;48.772;9.148;2023-08-01T03:18:46;17.92;77.24
6480;DHT22;71753;48.772;9.148;2023-08-01T03:21:14;17.81;78.37
6480;DHT22;71753;48.772;9.148;2023-08-01T03:23:41;17.82;78.22
6480;DHT22;71753;48.772;9.148;2023-08-01T03:26:08;17.84;77.08
6480;DHT22;71753;48.772;9.148;2023-08-01T03:28:34;17.85;79.07
6480;DHT22;71753;48.772;9.148;2023-08-01T03:31:01;18.00;75.82
6480;DHT22;71753;48.772;9.148;2023-08-01T03:33:28;18.02;76.70
6480;DHT22;71753;48.772;9.148;2023-08-01T03:35:55;17.99;76.87
6480;DHT22;71753;48.772;9.148;2023-08-01T03:38:23;18.07;75.90
6480;DHT22;71753;48.772;9.148;2023-08-01T03:40:50;18.22;74.89
6480;DHT22;71753;48.772;9.148;2023-08-01T03:43:16;18.21;75.17
6480;DHT22;71753;48.772;9.148;2023-08-01T03:45:48;18.17;76.18
6480;DHT22;71753;48.772;9.148;2023-08-01T03:48:15;18.20;75.41
6480;DHT22;71753;48.772;9.148;2023-08-01T03:50:41;18.25;75.12
6480;DHT22;71753;48.772;9.148;2023-08-01T03:53:08;18.25;75.31
6480;DHT22;71753;48.772;9.148;2023-08-01T03:55:36;18.21;75.54
6480;DHT22;71753;48.772;9.148;2023-08-01T03:58:03;18.27;74.94
6480;DHT22;71753;48.772;9.148;2023-08-01T04:00:29;18.23;75.18
6480;DHT22;71753;48.772;9.148;2023-08-01T04:02:58;18.23;75.86
6480;DHT22;71753;48.772;9.148;2023-08-01T04:05:24;18.25;75.41
6480;DHT22;71753;48.772;9.148;2023-08-01T04:07:51;18.23;75.47
6480;DHT22;71753;48.772;9.148;2023-08-01T04:10:20;18.28;74.63
6480;DHT22;71753;48.772;9.148;2023-08-01T04:12:48;18.34;73.96
6480;DHT22;71753;48.772;9.148;2023-08-01T04:15:15;18.25;75.12
6480;DHT22;71753;48.772;9.148;2023-08-01T04:17:41;18.12;76.37
6480;DHT22;71753;48.772;9.148;2023-08-01T04:20:09;18.20;75.85
6480;DHT22;71753;48.772;9.148;2023-08-01T04:22:35;18.08;76.50
6480;DHT22;71753;48.772;9.148;2023-08-01T04:25:02;18.07;77.11
6480;DHT22;71753;48.772;9.148;2023-08-01T04:27:29;18.13;75.65
6480;DHT22;71753;48.772;9.148;2023-08-01T04:29:57;18.14;75.81
6480;DHT22;71753;48.772;9.148;2023-08-01T04:32:23;18.12;76.06
6480;DHT22;71753;48.772;9.148;2023-08-01T04:34:50;18.12;76.51
6480;DHT22;71753;48.772;9.148;2023-08-01T04:37:17;18.18;75.60
6480;DHT22;71753;48.772;9.148;2023-08-01T04:39:46;18.19;75.12
6480;DHT22;71753;48.772;9.148;2023-08-01T04:42:12;18.20;75.63
6480;DHT22;71753;48.772;9.148;2023-08-01T04:44:39;18.17;75.37
6480;DHT22;71753;48.772;9.148;2023-08-01T04:47:07;18.27;74.36
6480;DHT22;71753;48.772;9.148;2023-08-01T04:49:33;18.21;74.56
6480;DHT22;71753;48.772;9.148;2023-08-01T04:52:00;18.24;73.63
6480;DHT22;71753;48.772;9.148;2023-08-01T04:54:27;18.24;73.53
6480;DHT22;71753;48.772;9.148;2023-08-01T04:56:53;18.47;71.96
6480;DHT22;71753;48.772;9.148;2023-08-01T04:59:20;18.52;71.64
6480;DHT22;71753;48.772;9.148;2023-08-01T05:01:46;18.50;72.58
6480;DHT22;71753;48.772;9.148;2023-08-01T05:04:13;18.52;71.46
6480;DHT22;71753;48.772;9.148;2023-08-01T05:06:40;18.49;71.47
6480;DHT22;71753;48.772;9.148;2023-08-01T05:09:07;18.53;71.12
6480;DHT22;71753;48.772;9.148;2023-08-01T05:11:33;18.58;70.84
6480;DHT22;71753;48.772;9.148;2023-08-01T05:14:00;18.56;71.57
6480;DHT22;71753;48.772;9.148;2023-08-01T05:16:27;18.61;71.32
6480;DHT22;71753;48.772;9.148;2023-08-01T05:18:53;18.58;70.87
6480;DHT22;71753;48.772;9.148;2023-08-01T05:21:21;18.54;71.17
6480;DHT22;71753;48.772;9.148;2023-08-01T05:23:48;18.50;73.53
6480;DHT22;71753;48.772;9.148;2023-08-01T05:26:14;18.40;72.80
6480;DHT22;71753;48.772;9.148;2023-08-01T05:28:41;18.34;75.19
6480;DHT22;71753;48.772;9.148;2023-08-01T05:31:08;18.38;72.70
6480;DHT22;71753;48.772;9.148;2023-08-01T05:33:35;18.24;74.99
6480;DHT22;71753;48.772;9.148;2023-08-01T05:36:01;18.33;73.28
6480;DHT22;71753;48.772;9.148;2023-08-01T05:38:29;18.39;72.93
6480;DHT22;71753;48.772;9.148;2023-08-01T05:40:56;18.47;72.31
6480;DHT22;71753;48.772;9.148;2023-08-01T05:43:23;18.52;71.20
6480;DHT22;71753;48.772;9.148;2023-08-01T05:45:49;18.55;69.93
6480;DHT22;71753;48.772;9.148;2023-08-01T05:48:16;18.64;70.58
6480;DHT22;71753;48.772;9.148;2023-08-01T05:50:42;18.61;69.90
6480;DHT22;71753;48.772;9.148;2023-08-01T05:53:09;18.63;70.77
6480;DHT22;71753;48.772;9.148;2023-08-01T05:55:37;18.71;70.35
6480;DHT22;71753;48.772;9.148;2023-08-01T05:58:04;18.68;70.95
6480;DHT22;71753;48.772;9.148;2023-08-01T06:00:31;18.81;68.28
6480;DHT22;71753;48.772;9.148;2023-08-01T06:02:57;18.76;69.86
6480;DHT22;71753;48.772;9.148;2023-08-01T06:05:25;18.86;68.53
6480;DHT22;71753;48.772;9.148;2023-08-01T06:07:52;18.84;68.78
6480;DHT22;71753;48.772;9.148;2023-08-01T06:10:19;18.79;68.97
6480;DHT22;71753;48.772;9.148;2023-08-01T06:12:47;18.81;68.40
6480;DHT22;71753;48.772;9.148;2023-08-01T06:15:14;18.86;67.78
6480;DHT22;71753;48.772;9.148;2023-08-01T06:17:40;18.89;67.03
6480;DHT22;71753;48.772;9.148;2023-08-01T06:20:08;18.87;67.29
6480;DHT22;71753;48.772;9.148;2023-08-01T06:22:35;18.78;67.82
6480;DHT22;71753;48.772;9.148;2023-08-01T06:25:01;18.69;67.85
6480;DHT22;71753;48.772;9.148;2023-08-01T06:27:28;18.43;73.42
6480;DHT22;71753;48.772;9.148;2023-08-01T06:29:56;17.82;76.70
6480;DHT22;71753;48.772;9.148;2023-08-01T06:32:23;17.64;78.07
6480;DHT22;71753;48.772;9.148;2023-08-01T06:34:50;17.55;75.89
6480;DHT22;71753;48.772;9.148;2023-08-01T06:37:16;17.56;75.70
6480;DHT22;71753;48.772;9.148;2023-08-01T06:39:43;17.59;76.02
6480;DHT22;71753;48.772;9.148;2023-08-01T06:42:10;17.54;76.06
6480;DHT22;71753;48.772;9.148;2023-08-01T06:44:36;17.65;74.31
6480;DHT22;71753;48.772;9.148;2023-08-01T06:47:05;17.56;75.99
6480;DHT22;71753;48.772;9.148;2023-08-01T06:49:32;17.43;77.15
6480;DHT22;71753;48.772;9.148;2023-08-01T06:51:58;17.09;80.87
6480;DHT22;71753;48.772;9.148;2023-08-01T06:54:25;16.95;82.47
6480;DHT22;71753;48.772;9.148;2023-08-01T06:56:52;16.87;81.81
6480;DHT22;71753;48.772;9.148;2023-08-01T06:59:18;16.91;79.14
6480;DHT22;71753;48.772;9.148;2023-08-01T07:01:45;16.92;81.39
6480;DHT22;71753;48.772;9.148;2023-08-01T07:04:13;17.02;80.86
6480;DHT22;71753;48.772;9.148;2023-08-01T07:06:40;17.09;79.56
6480;DHT22;71753;48.772;9.148;2023-08-01T07:09:07;17.17;77.94
6480;DHT22;71753;48.772;9.148;2023-08-01T07:11:33;17.13;80.45
6480;DHT22;71753;48.772;9.148;2023-08-01T07:14:00;17.19;79.31
6480;DHT22;71753;48.772;9.148;2023-08-01T07:16:27;17.26;79.88
6480;DHT22;71753;48.772;9.148;2023-08-01T07:18:54;17.26;79.21
6480;DHT22;71753;48.772;9.148;2023-08-01T07:21:23;17.30;76.75
6480;DHT22;71753;48.772;9.148;2023-08-01T07:23:49;17.24;79.02
6480;DHT22;71753;48.772;9.148;2023-08-01T07:26:16;17.06;79.72
6480;DHT22;71753;48.772;9.148;2023-08-01T07:28:43;17.04;80.27
6480;DHT22;71753;48.772;9.148;2023-08-01T07:31:10;16.98;80.33
6480;DHT22;71753;48.772;9.148;2023-08-01T07:33:36;16.92;80.54
6480;DHT22;71753;48.772;9.148;2023-08-01T07:36:03;16.80;82.07
6480;DHT22;71753;48.772;9.148;2023-08-01T07:38:31;16.56;85.74
6480;DHT22;71753;48.772;9.148;2023-08-01T07:41:02;16.55;84.62
6480;DHT22;71753;48.772;9.148;2023-08-01T07:43:29;16.36;86.69
6480;DHT22;71753;48.772;9.148;2023-08-01T07:45:56;16.35;86.65
6480;DHT22;71753;48.772;9.148;2023-08-01T07:48:23;16.31;87.44
6480;DHT22;71753;48.772;9.148;2023-08-01T07:50:50;16.37;86.72
6480;DHT22;71753;48.772;9.148;2023-08-01T07:53:17;16.28;88.16
6480;DHT22;71753;48.772;9.148;2023-08-01T07:55:45;16.29;87.86
6480;DHT22;71753;48.772;9.148;2023-08-01T07:58:11;16.28;88.28
6480;DHT22;71753;48.772;9.148;2023-08-01T08:00:38;16.39;87.29
6480;DHT22;71753;48.772;9.148;2023-08-01T08:03:05;16.56;87.97
6480;DHT22;71753;48.772;9.148;2023-08-01T08:05:33;16.55;88.10
6480;DHT22;71753;48.772;9.148;2023-08-01T08:08:03;16.65;86.66
6480;DHT22;71753;48.772;9.148;2023-08-01T08:10:30;16.81;86.36
6480;DHT22;71753;48.772;9.148;2023-08-01T08:12:58;16.73;87.39
6480;DHT22;71753;48.772;9.148;2023-08-01T08:15:25;16.65;87.80
6480;DHT22;71753;48.772;9.148;2023-08-01T08:17:52;16.71;87.59
6480;DHT22;71753;48.772;9.148;2023-08-01T08:20:18;16.76;87.90
6480;DHT22;71753;48.772;9.148;2023-08-01T08:22:45;16.72;88.41
6480;DHT22;71753;48.772;9.148;2023-08-01T08:25:12;16.74;86.93
6480;DHT22;71753;48.772;9.148;2023-08-01T08:27:38;16.80;87.75
6480;DHT22;71753;48.772;9.148;2023-08-01T08:30:08;16.78;87.38
6480;DHT22;71753;48.772;9.148;2023-08-01T08:32:35;16.79;87.50
6480;DHT22;71753;48.772;9.148;2023-08-01T08:35:02;16.93;87.36
6480;DHT22;71753;48.772;9.148;2023-08-01T08:37:28;16.96;86.28
6480;DHT22;71753;48.772;9.148;2023-08-01T08:39:55;17.10;86.09
6480;DHT22;71753;48.772;9.148;2023-08-01T08:42:22;17.19;84.71
6480;DHT22;71753;48.772;9.148;2023-08-01T08:44:50;17.44;86.30
6480;DHT22;71753;48.772;9.148;2023-08-01T08:47:24;17.60;85.14
6480;DHT22;71753;48.772;9.148;2023-08-01T08:49:52;17.64;83.47
6480;DHT22;71753;48.772;9.148;2023-08-01T08:52:21;17.69;85.47
6480;DHT22;71753;48.772;9.148;2023-08-01T08:54:48;17.62;84.64
6480;DHT22;71753;48.772;9.148;2023-08-01T08:57:15;17.85;81.86
6480;DHT22;71753;48.772;9.148;2023-08-01T08:59:43;18.17;84.09
6480;DHT22;71753;48.772;9.148;2023-08-01T09:02:10;18.34;83.29
6480;DHT22;71753;48.772;9.148;2023-08-01T09:04:38;18.39;82.13
6480;DHT22;71753;48.772;9.148;2023-08-01T09:07:08;18.10;83.63
6480;DHT22;71753;48.772;9.148;2023-08-01T09:09:35;18.03;84.41
6480;DHT22;71753;48.772;9.148;2023-08-01T09:12:03;17.80;84.52
6480;DHT22;71753;48.772;9.148;2023-08-01T09:14:30;17.66;85.00
6480;DHT22;71753;48.772;9.148;2023-08-01T09:17:06;17.52;86.03
6480;DHT22;71753;48.772;9.148;2023-08-01T09:19:35;17.51;85.75
6480;DHT22;71753;48.772;9.148;2023-08-01T09:22:10;17.60;84.36
6480;DHT22;71753;48.772;9.148;2023-08-01T09:24:37;17.65;86.75
6480;DHT22;71753;48.772;9.148;2023-08-01T09:27:04;17.74;85.79
6480;DHT22;71753;48.772;9.148;2023-08-01T09:29:31;17.92;85.80
6480;DHT22;71753;48.772;9.148;2023-08-01T09:31:58;18.25;84.83
6480;DHT22;71753;48.772;9.148;2023-08-01T09:34:26;18.37;84.06
6480;DHT22;71753;48.772;9.148;2023-08-01T09:36:57;18.50;82.59
6480;DHT22;71753;48.772;9.148;2023-08-01T09:39:26;18.57;82.71
6480;DHT22;71753;48.772;9.148;2023-08-01T09:41:56;18.95;82.41
6480;DHT22;71753;48.772;9.148;2023-08-01T09:44:23;18.72;80.94
6480;DHT22;71753;48.772;9.148;2023-08-01T09:46:58;18.77;80.81
6480;DHT22;71753;48.772;9.148;2023-08-01T09:49:27;18.58;82.46
6480;DHT22;71753;48.772;9.148;2023-08-01T09:51:53;18.56;83.36
6480;DHT22;71753;48.772;9.148;2023-08-01T09:54:21;18.56;81.91
6480;DHT22;71753;48.772;9.148;2023-08-01T09:56:50;18.61;81.88
6480;DHT22;71753;48.772;9.148;2023-08-01T09:59:19;18.79;81.66
6480;DHT22;71753;48.772;9.148;2023-08-01T10:01:48;18.71;82.08
6480;DHT22;71753;48.772;9.148;2023-08-01T10:04:18;18.67;82.07
6480;DHT22;71753;48.772;9.148;2023-08-01T10:06:46;18.65;82.23
6480;DHT22;71753;48.772;9.148;2023-08-01T10:09:16;18.51;81.23
6480;DHT22;71753;48.772;9.148;2023-08-01T10:11:44;18.68;80.42
6480;DHT22;71753;48.772;9.148;2023-08-01T10:14:12;18.97;81.44
6480;DHT22;71753;48.772;9.148;2023-08-01T10:16:40;18.87;80.98
6480;DHT22;71753;48.772;9.148;2023-08-01T10:19:09;19.08;79.65
6480;DHT22;71753;48.772;9.148;2023-08-01T10:21:37;19.05;79.74
6480;DHT22;71753;48.772;9.148;2023-08-01T10:24:05;19.15;81.14
6480;DHT22;71753;48.772;9.148;2023-08-01T10:26:32;19.18;79.64
6480;DHT22;71753;48.772;9.148;2023-08-01T10:29:00;18.99;79.95
6480;DHT22;71753;48.772;9.148;2023-08-01T10:31:29;19.22;80.52
6480;DHT22;71753;48.772;9.148;2023-08-01T10:34:04;19.07;80.47
6480;DHT22;71753;48.772;9.148;2023-08-01T10:36:31;19.62;79.74
6480;DHT22;71753;48.772;9.148;2023-08-01T10:38:59;19.43;77.85
6480;DHT22;71753;48.772;9.148;2023-08-01T10:41:27;19.67;78.08
6480;DHT22;71753;48.772;9.148;2023-08-01T10:44:05;20.14;75.57
6480;DHT22;71753;48.772;9.148;2023-08-01T10:46:46;20.19;75.73
6480;DHT22;71753;48.772;9.148;2023-08-01T10:49:14;20.51;72.86
6480;DHT22;71753;48.772;9.148;2023-08-01T10:51:41;20.81;73.80
6480;DHT22;71753;48.772;9.148;2023-08-01T10:54:18;20.79;72.48
6480;DHT22;71753;48.772;9.148;2023-08-01T10:56:45;21.05;67.53
6480;DHT22;71753;48.772;9.148;2023-08-01T10:59:12;21.06;65.64
6480;DHT22;71753;48.772;9.148;2023-08-01T11:01:45;20.63;64.46
6480;DHT22;71753;48.772;9.148;2023-08-01T11:04:16;20.50;67.78
6480;DHT22;71753;48.772;9.148;2023-08-01T11:06:46;20.62;65.40
6480;DHT22;71753;48.772;9.148;2023-08-01T11:09:18;20.20;66.41
6480;DHT22;71753;48.772;9.148;2023-08-01T11:11:46;20.22;67.23
6480;DHT22;71753;48.772;9.148;2023-08-01T11:14:15;19.89;67.16
6480;DHT22;71753;48.772;9.148;2023-08-01T11:16:42;20.07;64.17
6480;DHT22;71753;48.772;9.148;2023-08-01T11:19:19;20.62;64.09
6480;DHT22;71753;48.772;9.148;2023-08-01T11:21:46;20.74;64.55
6480;DHT22;71753;48.772;9.148;2023-08-01T11:24:13;20.26;58.98
6480;DHT22;71753;48.772;9.148;2023-08-01T11:26:41;20.76;60.03
6480;DHT22;71753;48.772;9.148;2023-08-01T11:29:09;20.79;58.45
6480;DHT22;71753;48.772;9.148;2023-08-01T11:31:36;21.05;58.87
6480;DHT22;71753;48.772;9.148;2023-08-01T11:34:02;20.71;57.23
6480;DHT22;71753;48.772;9.148;2023-08-01T11:36:30;20.95;58.54
6480;DHT22;71753;48.772;9.148;2023-08-01T11:38:58;20.87;56.45
6480;DHT22;71753;48.772;9.148;2023-08-01T11:41:26;20.54;58.61
6480;DHT22;71753;48.772;9.148;2023-08-01T11:43:53;20.86;56.13
6480;DHT22;71753;48.772;9.148;2023-08-01T11:46:21;21.37;55.99
6480;DHT22;71753;48.772;9.148;2023-08-01T11:48:48;21.15;53.80
6480;DHT22;71753;48.772;9.148;2023-08-01T11:51:16;21.60;55.28
6480;DHT22;71753;48.772;9.148;2023-08-01T11:53:44;21.88;53.17
6480;DHT22;71753;48.772;9.148;2023-08-01T11:56:19;21.33;53.61
6480;DHT22;71753;48.772;9.148;2023-08-01T11:58:47;21.13;54.73
6480;DHT22;71753;48.772;9.148;2023-08-01T12:01:14;21.36;54.54
6480;DHT22;71753;48.772;9.148;2023-08-01T12:03:44;21.90;52.30
6480;DHT22;71753;48.772;9.148;2023-08-01T12:06:11;21.82;53.65
6480;DHT22;71753;48.772;9.148;2023-08-01T12:08:39;21.87;53.43
6480;DHT22;71753;48.772;9.148;2023-08-01T12:11:17;22.28;51.53
6480;DHT22;71753;48.772;9.148;2023-08-01T12:13:44;22.05;53.16
6480;DHT22;71753;48.772;9.148;2023-08-01T12:16:11;21.72;52.76
6480;DHT22;71753;48.772;9.148;2023-08-01T12:18:39;21.89;51.71
6480;DHT22;71753;48.772;9.148;2023-08-01T12:21:05;22.01;51.75
6480;DHT22;71753;48.772;9.148;2023-08-01T12:23:32;21.59;52.70
6480;DHT22;71753;48.772;9.148;2023-08-01T12:25:59;21.32;51.76
6480;DHT22;71753;48.772;9.148;2023-08-01T12:28:27;21.13;52.11
6480;DHT22;71753;48.772;9.148;2023-08-01T12:30:54;21.29;53.81
6480;DHT22;71753;48.772;9.148;2023-08-01T12:33:24;21.14;52.01
6480;DHT22;71753;48.772;9.148;2023-08-01T12:35:50;21.34;53.27
6480;DHT22;71753;48.772;9.148;2023-08-01T12:38:17;21.35;53.15
6480;DHT22;71753;48.772;9.148;2023-08-01T12:40:44;21.61;52.91
6480;DHT22;71753;48.772;9.148;2023-08-01T12:43:12;21.78;52.36
6480;DHT22;71753;48.772;9.148;2023-08-01T12:45:40;22.08;52.70
6480;DHT22;71753;48.772;9.148;2023-08-01T12:48:07;21.99;52.46
6480;DHT22;71753;48.772;9.148;2023-08-01T12:50:34;22.22;52.44
6480;DHT22;71753;48.772;9.148;2023-08-01T12:53:00;22.28;49.81
6480;DHT22;71753;48.772;9.148;2023-08-01T12:55:27;22.83;49.86
6480;DHT22;71753;48.772;9.148;2023-08-01T12:57:54;22.05;46.73
6480;DHT22;71753;48.772;9.148;2023-08-01T13:00:21;22.33;47.05
6480;DHT22;71753;48.772;9.148;2023-08-01T13:02:49;21.93;48.31
6480;DHT22;71753;48.772;9.148;2023-08-01T13:05:16;21.83;48.07
6480;DHT22;71753;48.772;9.148;2023-08-01T13:07:42;22.14;47.34
6480;DHT22;71753;48.772;9.148;2023-08-01T13:10:09;22.42;46.75
6480;DHT22;71753;48.772;9.148;2023-08-01T13:12:36;22.42;47.35
6480;DHT22;71753;48.772;9.148;2023-08-01T13:15:04;22.83;47.67
6480;DHT22;71753;48.772;9.148;2023-08-01T13:17:31;22.60;47.83
6480;DHT22;71753;48.772;9.148;2023-08-01T13:19:59;22.11;48.34
6480;DHT22;71753;48.772;9.148;2023-08-01T13:22:26;22.07;47.93
6480;DHT22;71753;48.772;9.148;2023-08-01T13:24:52;22.12;48.46
6480;DHT22;71753;48.772;9.148;2023-08-01T13:27:19;22.33;47.36
6480;DHT22;71753;48.772;9.148;2023-08-01T13:29:46;22.44;46.77
6480;DHT22;71753;48.772;9.148;2023-08-01T13:32:15;22.35;47.86
6480;DHT22;71753;48.772;9.148;2023-08-01T13:34:42;22.55;47.60
6480;DHT22;71753;48.772;9.148;2023-08-01T13:37:10;22.27;47.84
6480;DHT22;71753;48.772;9.148;2023-08-01T13:39:36;22.57;48.01
6480;DHT22;71753;48.772;9.148;2023-08-01T13:42:04;23.09;47.83
6480;DHT22;71753;48.772;9.148;2023-08-01T13:44:30;22.35;48.44
6480;DHT22;71753;48.772;9.148;2023-08-01T13:46:58;22.53;48.65
6480;DHT22;71753;48.772;9.148;2023-08-01T13:49:25;22.51;48.72
6480;DHT22;71753;48.772;9.148;2023-08-01T13:51:51;22.75;47.83
6480;DHT22;71753;48.772;9.148;2023-08-01T13:54:19;22.53;48.41
6480;DHT22;71753;48.772;9.148;2023-08-01T13:56:46;22.21;48.01
6480;DHT22;71753;48.772;9.148;2023-08-01T13:59:13;22.44;49.06
6480;DHT22;71753;48.772;9.148;2023-08-01T14:01:40;22.47;48.86
6480;DHT22;71753;48.772;9.148;2023-08-01T14:04:06;22.41;45.83
6480;DHT22;71753;48.772;9.148;2023-08-01T14:06:33;22.63;48.35
6480;DHT22;71753;48.772;9.148;2023-08-01T14:09:00;22.81;46.66
6480;DHT22;71753;48.772;9.148;2023-08-01T14:11:28;22.77;46.25
6480;DHT22;71753;48.772;9.148;2023-08-01T14:13:54;23.32;45.28
6480;DHT22;71753;48.772;9.148;2023-08-01T14:16:22;23.84;42.32
6480;DHT22;71753;48.772;9.148;2023-08-01T14:18:49;23.40;42.20
6480;DHT22;71753;48.772;9.148;2023-08-01T14:21:16;22.92;44.67
6480;DHT22;71753;48.772;9.148;2023-08-01T14:23:43;23.11;43.59
6480;DHT22;71753;48.772;9.148;2023-08-01T14:26:10;23.65;44.35
6480;DHT22;71753;48.772;9.148;2023-08-01T14:28:38;24.42;43.32
6480;DHT22;71753;48.772;9.148;2023-08-01T14:31:04;24.06;42.97
6480;DHT22;71753;48.772;9.148;2023-08-01T14:33:33;23.99;40.93
6480;DHT22;71753;48.772;9.148;2023-08-01T14:36:00;23.89;41.51
6480;DHT22;71753;48.772;9.148;2023-08-01T14:38:26;24.32;39.54
6480;DHT22;71753;48.772;9.148;2023-08-01T14:40:53;25.03;38.98
6480;DHT22;71753;48.772;9.148;2023-08-01T14:43:20;25.18;37.85
6480;DHT22;71753;48.772;9.148;2023-08-01T14:45:48;25.35;35.65
6480;DHT22;71753;48.772;9.148;2023-08-01T14:48:14;24.55;37.59
6480;DHT22;71753;48.772;9.148;2023-08-01T14:50:41;24.69;37.79
6480;DHT22;71753;48.772;9.148;2023-08-01T14:53:08;24.84;39.93
6480;DHT22;71753;48.772;9.148;2023-08-01T14:55:34;25.06;38.00
6480;DHT22;71753;48.772;9.148;2023-08-01T14:58:01;24.50;37.95
6480;DHT22;71753;48.772;9.148;2023-08-01T15:00:28;25.65;37.09
6480;DHT22;71753;48.772;9.148;2023-08-01T15:02:56;26.19;35.32
6480;DHT22;71753;48.772;9.148;2023-08-01T15:05:24;25.73;36.71
6480;DHT22;71753;48.772;9.148;2023-08-01T15:07:51;25.58;36.92
6480;DHT22;71753;48.772;9.148;2023-08-01T15:10:17;25.79;36.90
6480;DHT22;71753;48.772;9.148;2023-08-01T15:12:44;25.46;37.88
6480;DHT22;71753;48.772;9.148;2023-08-01T15:15:11;26.61;35.69
6480;DHT22;71753;48.772;9.148;2023-08-01T15:17:37;26.70;36.71
6480;DHT22;71753;48.772;9.148;2023-08-01T15:20:06;25.15;38.50
6480;DHT22;71753;48.772;9.148;2023-08-01T15:22:33;24.68;40.05
6480;DHT22;71753;48.772;9.148;2023-08-01T15:25:00;24.11;40.04
6480;DHT22;71753;48.772;9.148;2023-08-01T15:27:26;23.67;43.30
6480;DHT22;71753;48.772;9.148;2023-08-01T15:29:53;24.70;40.55
6480;DHT22;71753;48.772;9.148;2023-08-01T15:32:20;24.86;39.10
6480;DHT22;71753;48.772;9.148;2023-08-01T15:34:46;24.19;42.65
6480;DHT22;71753;48.772;9.148;2023-08-01T15:37:15;23.65;42.45
6480;DHT22;71753;48.772;9.148;2023-08-01T15:39:41;23.08;44.24
6480;DHT22;71753;48.772;9.148;2023-08-01T15:42:08;23.13;45.50
6480;DHT22;71753;48.772;9.148;2023-08-01T15:44:35;22.92;45.77